createdAt,value
2022-12-29T00:01:35.284Z,36.97
2022-12-29T00:04:01.766Z,36.58
2022-12-29T04:08:36.328Z,12.55
2022-12-29T04:11:02.718Z,12.55
2022-12-29T04:13:29.134Z,12.19
2022-12-29T04:15:55.575Z,11.90
2022-12-29T04:18:22.006Z,11.93
2022-12-29T04:20:48.387Z,12.32
2022-12-29T04:23:14.817Z,11.82
2022-12-29T04:25:41.220Z,11.66
2022-12-29T04:28:07.601Z,11.60
2022-12-29T04:30:34.250Z,11.52
2022-12-29T04:33:00.829Z,11.50
2022-12-29T04:35:27.248Z,11.01
2022-12-29T04:37:53.642Z,11.14
2022-12-29T04:40:20.045Z,11.14
2022-12-29T04:42:46.443Z,11.04
2022-12-29T04:45:12.869Z,10.65
2022-12-29T04:47:39.244Z,10.42
2022-12-29T04:50:05.628Z,10.81
2022-12-29T04:52:32.020Z,10.08
2022-12-29T04:54:58.389Z,10.27
2022-12-29T04:57:24.775Z,10.33
2022-12-29T04:59:51.150Z,10.12
2022-12-29T05:02:17.709Z,10.21
2022-12-29T05:04:45.232Z,10.27
2022-12-29T05:07:11.627Z,10.09
2022-12-29T05:09:38.024Z,10.02
2022-12-29T05:12:04.391Z,9.79
2022-12-29T05:14:30.803Z,9.87
2022-12-29T05:16:57.226Z,9.70
2022-12-29T05:19:23.610Z,9.09
2022-12-29T05:21:50.004Z,9.60
2022-12-29T05:24:16.383Z,9.49
2022-12-29T05:26:42.763Z,9.30
2022-12-29T05:29:09.173Z,9.34
2022-12-29T05:31:35.695Z,8.92
2022-12-29T05:34:02.139Z,8.97
2022-12-29T05:36:32.841Z,9.19
2022-12-29T05:39:02.257Z,8.70
2022-12-29T05:41:28.660Z,8.89
2022-12-29T05:43:55.059Z,8.55
2022-12-29T05:46:21.484Z,8.49
2022-12-29T05:48:47.907Z,8.61
2022-12-29T05:51:14.287Z,8.47
2022-12-29T05:53:40.841Z,8.51
2022-12-29T05:56:07.234Z,8.32
2022-12-29T05:58:34.165Z,7.95
2022-12-29T06:01:00.569Z,8.19
2022-12-29T06:03:27.020Z,7.84
2022-12-29T06:05:53.546Z,7.74
2022-12-29T06:08:19.915Z,7.93
2022-12-29T06:10:46.321Z,7.59
2022-12-29T06:13:12.750Z,7.57
2022-12-29T06:15:39.145Z,7.52
2022-12-29T06:18:05.536Z,7.43
2022-12-29T06:20:31.928Z,7.66
2022-12-29T06:22:58.299Z,7.27
2022-12-29T06:25:24.678Z,7.42
2022-12-29T06:27:51.057Z,7.24
2022-12-29T06:30:17.472Z,7.25
2022-12-29T06:32:43.858Z,7.18
2022-12-29T06:35:10.263Z,7.21
2022-12-29T06:37:36.674Z,7.26
2022-12-29T06:40:03.081Z,6.93
2022-12-29T06:42:29.467Z,6.82
2022-12-29T06:44:55.853Z,6.73
2022-12-29T06:47:22.252Z,6.82
2022-12-29T06:49:48.653Z,6.32
2022-12-29T06:52:15.050Z,6.60
2022-12-29T06:54:41.426Z,6.77
2022-12-29T06:57:07.821Z,6.70
2022-12-29T06:59:34.223Z,6.75
2022-12-29T07:02:00.856Z,6.60
2022-12-29T07:04:27.358Z,6.23
2022-12-29T07:06:53.734Z,6.15
2022-12-29T07:09:20.113Z,6.35
2022-12-29T07:11:46.504Z,6.28
2022-12-29T07:14:12.915Z,6.16
2022-12-29T07:16:39.324Z,5.61
2022-12-29T07:19:05.749Z,5.89
2022-12-29T07:21:32.121Z,6.03
2022-12-29T07:23:58.504Z,5.77
2022-12-29T07:26:24.905Z,6.12
2022-12-29T07:28:51.282Z,6.10
2022-12-29T07:31:17.855Z,6.08
2022-12-29T07:33:44.243Z,5.95
2022-12-29T07:36:10.724Z,5.63
2022-12-29T07:38:37.133Z,5.95
2022-12-29T07:41:03.535Z,5.73
2022-12-29T07:43:29.954Z,5.48
2022-12-29T07:45:56.381Z,5.76
2022-12-29T07:48:22.779Z,5.78
2022-12-29T07:50:49.163Z,5.62
2022-12-29T07:53:15.560Z,5.71
2022-12-29T07:55:41.940Z,5.57
2022-12-29T07:58:08.331Z,5.20
2022-12-29T08:00:34.714Z,5.13
2022-12-29T08:03:01.114Z,5.00
2022-12-29T08:05:27.501Z,5.03
2022-12-29T08:07:53.894Z,5.27
2022-12-29T08:10:20.278Z,5.16
2022-12-29T08:12:46.669Z,4.97
2022-12-29T08:15:13.049Z,5.22
2022-12-29T08:17:39.453Z,4.87
2022-12-29T08:20:05.856Z,4.58
2022-12-29T08:22:32.257Z,4.88
2022-12-29T08:24:58.666Z,4.48
2022-12-29T08:27:25.074Z,4.60
2022-12-29T08:29:51.478Z,4.77
2022-12-29T08:32:17.843Z,4.51
2022-12-29T08:34:44.229Z,4.51
2022-12-29T08:37:10.632Z,4.36
2022-12-29T08:39:37.023Z,4.71
2022-12-29T08:42:03.408Z,4.48
2022-12-29T08:44:29.813Z,4.58
2022-12-29T08:46:56.276Z,4.49
2022-12-29T08:49:22.697Z,4.21
2022-12-29T08:51:49.066Z,4.36
2022-12-29T08:54:15.461Z,4.68
2022-12-29T08:56:41.873Z,4.10
2022-12-29T08:59:08.251Z,4.20
2022-12-29T09:01:34.703Z,4.01
2022-12-29T09:04:17.926Z,4.09
2022-12-29T09:06:44.809Z,4.11
2022-12-29T09:09:11.394Z,4.51
2022-12-29T09:11:37.791Z,4.62
2022-12-29T09:14:04.209Z,4.54
2022-12-29T09:16:30.620Z,4.31
2022-12-29T09:18:57.027Z,4.61
2022-12-29T09:21:23.430Z,4.73
2022-12-29T09:23:49.811Z,4.88
2022-12-29T09:26:16.217Z,4.98
2022-12-29T09:28:42.614Z,5.28
2022-12-29T09:31:09.054Z,5.07
2022-12-29T09:33:35.473Z,5.22
2022-12-29T09:36:01.863Z,5.50
2022-12-29T09:38:28.260Z,5.52
2022-12-29T09:40:54.653Z,5.64
2022-12-29T09:43:21.056Z,5.47
2022-12-29T09:45:47.447Z,5.70
2022-12-29T09:48:13.827Z,5.92
2022-12-29T09:50:40.215Z,6.06
2022-12-29T09:53:06.581Z,6.04
2022-12-29T09:55:32.963Z,5.94
2022-12-29T09:57:59.742Z,5.56
2022-12-29T10:00:26.136Z,6.05
2022-12-29T10:02:52.552Z,5.87
2022-12-29T10:05:18.969Z,5.82
2022-12-29T10:07:45.355Z,6.21
2022-12-29T10:10:11.757Z,6.18
2022-12-29T10:12:38.150Z,5.80
2022-12-29T10:15:04.561Z,6.38
2022-12-29T10:17:30.955Z,6.45
2022-12-29T10:19:57.326Z,6.29
2022-12-29T10:22:23.711Z,6.14
2022-12-29T10:24:50.355Z,6.86
2022-12-29T10:27:16.759Z,6.55
2022-12-29T10:29:43.147Z,6.67
2022-12-29T10:32:09.570Z,7.16
2022-12-29T10:34:35.993Z,6.63
2022-12-29T10:37:02.408Z,7.07
2022-12-29T10:39:28.790Z,7.19
2022-12-29T10:41:55.187Z,7.25
2022-12-29T10:44:21.599Z,7.20
2022-12-29T10:46:47.984Z,7.79
2022-12-29T10:49:19.629Z,7.86
2022-12-29T10:51:47.862Z,8.18
2022-12-29T10:54:14.260Z,8.11
2022-12-29T10:56:40.690Z,8.27
2022-12-29T10:59:07.099Z,8.10
2022-12-29T11:01:33.602Z,8.81
2022-12-29T11:04:00.171Z,8.33
2022-12-29T11:06:26.600Z,7.18
2022-12-29T11:08:53.003Z,7.63
2022-12-29T11:11:19.413Z,7.53
2022-12-29T11:13:45.821Z,8.10
2022-12-29T11:16:12.243Z,7.71
2022-12-29T11:18:38.652Z,8.09
2022-12-29T11:21:05.034Z,7.92
2022-12-29T11:23:31.434Z,8.48
2022-12-29T11:25:57.801Z,8.53
2022-12-29T11:28:24.221Z,8.92
2022-12-29T11:30:50.629Z,10.69
2022-12-29T11:33:17.017Z,12.20
2022-12-29T11:35:43.449Z,11.06
2022-12-29T11:38:09.826Z,11.21
2022-12-29T11:40:36.232Z,10.98
2022-12-29T11:43:02.659Z,11.31
2022-12-29T11:45:29.080Z,10.85
2022-12-29T11:47:55.455Z,10.83
2022-12-29T11:50:21.850Z,10.80
2022-12-29T11:52:48.234Z,10.59
2022-12-29T11:55:14.638Z,10.94
2022-12-29T11:57:41.038Z,10.68
2022-12-29T12:00:07.425Z,10.33
2022-12-29T12:02:40.527Z,10.51
2022-12-29T12:05:09.097Z,10.57
2022-12-29T12:07:35.538Z,10.50
2022-12-29T12:10:07.469Z,10.85
2022-12-29T12:12:34.559Z,10.82
2022-12-29T12:15:00.987Z,11.47
2022-12-29T12:17:27.421Z,11.79
2022-12-29T12:19:53.794Z,12.86
2022-12-29T12:22:20.193Z,13.47
2022-12-29T12:24:46.579Z,14.32
2022-12-29T12:27:12.977Z,15.81
2022-12-29T12:29:39.391Z,17.09
2022-12-29T12:32:05.787Z,18.13
2022-12-29T12:34:32.189Z,18.33
2022-12-29T12:36:58.579Z,20.48
2022-12-29T12:39:24.980Z,21.32
2022-12-29T12:41:51.397Z,22.04
2022-12-29T12:44:17.811Z,22.47
2022-12-29T12:46:44.270Z,24.24
2022-12-29T12:49:10.709Z,25.34
2022-12-29T12:51:37.098Z,25.21
2022-12-29T12:54:03.511Z,27.00
2022-12-29T12:56:29.898Z,28.15
2022-12-29T12:58:56.272Z,28.09
2022-12-29T13:01:22.826Z,30.12
2022-12-29T13:03:49.359Z,31.60
2022-12-29T13:06:15.765Z,31.97
2022-12-29T13:08:42.179Z,31.93
2022-12-29T13:11:08.585Z,32.82
2022-12-29T13:13:35.020Z,33.77
2022-12-29T13:16:01.492Z,33.88
2022-12-29T13:18:27.936Z,34.96
2022-12-29T13:20:54.357Z,35.80
2022-12-29T13:23:20.753Z,35.52
2022-12-29T13:25:47.278Z,36.25
2022-12-29T13:28:13.670Z,36.74
2022-12-29T13:30:40.082Z,36.80
2022-12-29T13:33:06.479Z,36.62
2022-12-29T13:35:32.881Z,36.59
2022-12-29T13:37:59.331Z,36.34
2022-12-29T13:40:25.776Z,36.59
2022-12-29T13:42:52.151Z,36.91
2022-12-29T13:45:18.572Z,35.90
2022-12-29T13:47:45.007Z,37.52
2022-12-29T13:50:11.384Z,37.39
2022-12-29T13:52:37.802Z,34.79
2022-12-29T13:55:04.203Z,35.66
2022-12-29T13:57:30.624Z,35.39
2022-12-29T13:59:57.003Z,36.50
2022-12-29T14:02:23.544Z,35.71
2022-12-29T14:04:50.224Z,35.58
2022-12-29T14:07:16.620Z,34.49
2022-12-29T14:09:43.027Z,34.72
2022-12-29T14:12:09.409Z,34.52
2022-12-29T14:14:35.805Z,34.04
2022-12-29T14:17:02.211Z,34.61
2022-12-29T14:19:28.602Z,34.76
2022-12-29T14:21:54.984Z,34.41
2022-12-29T14:24:21.399Z,34.22
2022-12-29T14:26:47.816Z,34.17
2022-12-29T14:29:14.207Z,33.56
2022-12-29T14:31:40.670Z,33.47
2022-12-29T14:34:07.117Z,33.29
2022-12-29T14:36:33.509Z,33.03
2022-12-29T14:38:59.899Z,32.70
2022-12-29T14:41:26.336Z,32.64
2022-12-29T14:43:52.710Z,33.36
2022-12-29T14:46:19.129Z,32.31
2022-12-29T14:48:45.559Z,31.75
2022-12-29T14:51:11.979Z,31.33
2022-12-29T14:53:38.493Z,32.52
2022-12-29T14:56:04.883Z,32.19
2022-12-29T14:58:31.275Z,31.74
2022-12-29T15:00:57.743Z,31.23
2022-12-29T15:03:24.274Z,31.06
2022-12-29T15:05:50.762Z,31.13
2022-12-29T15:08:17.142Z,30.69
2022-12-29T15:10:43.568Z,30.79
2022-12-29T15:13:09.993Z,30.17
2022-12-29T15:15:36.407Z,30.47
2022-12-29T15:18:02.812Z,30.13
2022-12-29T15:20:29.210Z,31.33
2022-12-29T15:22:55.600Z,30.30
2022-12-29T15:25:22.022Z,29.99
2022-12-29T15:27:48.441Z,29.68
2022-12-29T15:30:18.102Z,29.09
2022-12-29T15:32:44.824Z,29.58
2022-12-29T15:35:11.220Z,29.17
2022-12-29T15:37:37.630Z,28.92
2022-12-29T15:40:04.006Z,28.82
2022-12-29T15:42:30.413Z,29.37
2022-12-29T15:45:09.317Z,28.46
2022-12-29T15:47:36.909Z,28.58
2022-12-29T15:50:03.296Z,29.11
2022-12-29T15:52:29.724Z,29.40
2022-12-29T15:54:56.126Z,28.15
2022-12-29T15:57:22.546Z,28.19
2022-12-29T15:59:48.971Z,27.27
2022-12-29T16:02:15.449Z,27.51
2022-12-29T16:05:01.533Z,27.44
2022-12-29T16:07:28.296Z,27.52
2022-12-29T16:09:54.678Z,27.68
2022-12-29T16:12:21.069Z,28.36
2022-12-29T16:14:47.458Z,27.42
2022-12-29T16:17:13.928Z,27.37
2022-12-29T16:19:40.402Z,26.93
2022-12-29T16:22:06.807Z,26.48
2022-12-29T16:24:33.251Z,26.14
2022-12-29T16:26:59.673Z,27.07
2022-12-29T16:29:26.074Z,26.32
2022-12-29T16:31:52.455Z,26.38
2022-12-29T16:34:18.864Z,26.47
2022-12-29T16:36:45.274Z,25.34
2022-12-29T16:39:11.662Z,25.50
2022-12-29T16:41:38.079Z,25.21
2022-12-29T16:44:04.478Z,24.97
2022-12-29T16:46:30.963Z,25.14
2022-12-29T16:48:57.444Z,24.84
2022-12-29T16:51:23.853Z,25.02
2022-12-29T16:53:50.262Z,25.18
2022-12-29T16:56:16.664Z,25.14
2022-12-29T16:58:47.575Z,24.69
2022-12-29T17:01:15.381Z,25.09
2022-12-29T17:03:41.883Z,25.74
2022-12-29T17:06:08.634Z,24.93
2022-12-29T17:08:35.078Z,25.73
2022-12-29T17:11:01.479Z,25.29
2022-12-29T17:13:27.895Z,25.69
2022-12-29T17:15:54.360Z,25.42
2022-12-29T17:18:20.789Z,25.85
2022-12-29T17:20:47.208Z,25.59
2022-12-29T17:23:13.623Z,25.56
2022-12-29T17:25:40.076Z,25.67
2022-12-29T17:28:06.476Z,26.53
2022-12-29T17:30:34.061Z,26.36
2022-12-29T17:33:00.690Z,26.00
2022-12-29T17:35:27.084Z,26.73
2022-12-29T17:37:53.487Z,27.22
2022-12-29T17:40:19.922Z,26.34
2022-12-29T17:42:46.294Z,27.25
2022-12-29T17:45:12.707Z,26.47
2022-12-29T17:47:39.092Z,26.88
2022-12-29T17:50:05.489Z,26.67
2022-12-29T17:52:31.885Z,27.28
2022-12-29T17:54:58.271Z,24.85
2022-12-29T17:57:24.697Z,25.77
2022-12-29T17:59:51.115Z,26.02
2022-12-29T18:02:17.621Z,26.87
2022-12-29T18:04:44.085Z,26.54
2022-12-29T18:07:10.481Z,26.90
2022-12-29T18:09:36.893Z,27.63
2022-12-29T18:12:03.290Z,27.43
2022-12-29T18:14:29.676Z,27.90
2022-12-29T18:16:56.054Z,27.72
2022-12-29T18:19:22.441Z,28.64
2022-12-29T18:21:48.835Z,28.94
2022-12-29T18:24:15.257Z,28.69
2022-12-29T18:26:41.663Z,28.89
2022-12-29T18:29:08.069Z,28.80
2022-12-29T18:31:34.494Z,28.80
2022-12-29T18:34:00.948Z,29.04
2022-12-29T18:36:27.374Z,29.61
2022-12-29T18:38:53.849Z,29.39
2022-12-29T18:41:20.313Z,29.44
2022-12-29T18:43:46.767Z,29.45
2022-12-29T18:46:16.025Z,29.63
2022-12-29T18:48:46.953Z,29.54
2022-12-29T18:51:13.350Z,29.47
2022-12-29T18:53:39.786Z,29.03
2022-12-29T18:56:06.201Z,29.38
2022-12-29T18:58:34.302Z,29.13
2022-12-29T19:01:00.870Z,28.96
2022-12-29T19:03:27.369Z,28.83
2022-12-29T19:05:53.779Z,28.43
2022-12-29T19:08:20.169Z,27.92
2022-12-29T19:10:46.582Z,28.44
2022-12-29T19:13:12.959Z,28.24
2022-12-29T19:15:39.356Z,28.29
2022-12-29T19:18:42.391Z,27.15
2022-12-29T19:20:52.141Z,27.00
2022-12-29T19:23:18.535Z,26.93
2022-12-29T19:25:44.912Z,26.54
2022-12-29T19:28:11.298Z,26.35
2022-12-29T19:30:37.702Z,26.27
2022-12-29T19:33:09.520Z,26.84
2022-12-29T19:35:36.362Z,27.32
2022-12-29T19:38:02.772Z,26.50
2022-12-29T19:40:29.187Z,26.61
2022-12-29T19:42:55.575Z,27.53
2022-12-29T19:45:21.955Z,27.24
2022-12-29T19:47:48.330Z,27.45
2022-12-29T19:50:14.734Z,27.02
2022-12-29T19:52:41.110Z,27.69
2022-12-29T19:55:07.505Z,28.05
2022-12-29T19:57:33.894Z,28.96
2022-12-29T20:00:00.347Z,28.93
2022-12-29T20:02:26.865Z,29.26
2022-12-29T20:04:53.345Z,30.04
2022-12-29T20:07:19.761Z,30.72
2022-12-29T20:09:46.167Z,30.34
2022-12-29T20:12:12.582Z,30.73
2022-12-29T20:14:38.993Z,30.93
2022-12-29T20:17:12.346Z,31.59
2022-12-29T20:19:38.868Z,31.20
2022-12-29T20:22:05.264Z,30.76
2022-12-29T20:24:31.663Z,31.15
2022-12-29T20:26:58.060Z,31.49
2022-12-29T20:29:24.470Z,31.19
2022-12-29T20:31:50.928Z,31.18
2022-12-29T20:34:17.361Z,31.39
2022-12-29T20:36:43.777Z,31.88
2022-12-29T20:39:10.192Z,31.21
2022-12-29T20:41:36.629Z,31.31
2022-12-29T20:44:03.015Z,31.73
2022-12-29T20:46:35.361Z,31.29
2022-12-29T20:49:07.559Z,30.73
2022-12-29T20:52:04.021Z,30.95
2022-12-29T20:54:20.305Z,31.12
2022-12-29T20:56:46.691Z,29.92
2022-12-29T20:59:29.220Z,30.44
2022-12-29T21:01:56.026Z,30.83
2022-12-29T21:04:22.589Z,30.73
2022-12-29T21:06:48.988Z,30.01
2022-12-29T21:09:15.387Z,29.64
2022-12-29T21:11:41.837Z,29.38
2022-12-29T21:14:08.232Z,29.07
2022-12-29T21:16:34.665Z,28.83
2022-12-29T21:19:01.193Z,28.48
2022-12-29T21:21:27.583Z,29.25
2022-12-29T21:23:53.968Z,28.66
2022-12-29T21:26:20.388Z,29.00
2022-12-29T21:28:46.806Z,28.24
2022-12-29T21:31:13.318Z,28.68
2022-12-29T21:33:39.765Z,27.40
2022-12-29T21:36:06.167Z,28.33
2022-12-29T21:38:32.549Z,27.87
2022-12-29T21:40:58.979Z,28.33
2022-12-29T21:43:25.395Z,28.29
2022-12-29T21:45:51.799Z,27.15
2022-12-29T21:48:18.228Z,27.46
2022-12-29T21:50:44.628Z,27.53
2022-12-29T21:53:11.032Z,27.07
2022-12-29T21:55:37.426Z,26.29
2022-12-29T21:58:03.807Z,25.95
2022-12-29T22:00:30.221Z,26.33
2022-12-29T22:02:56.722Z,26.13
2022-12-29T22:05:23.220Z,25.37
2022-12-29T22:07:49.610Z,25.49
2022-12-29T22:10:16.021Z,25.87
2022-12-29T22:12:42.525Z,25.64
2022-12-29T22:15:08.917Z,25.03
2022-12-29T22:17:37.859Z,24.21
2022-12-29T22:20:04.895Z,24.12
2022-12-29T22:22:31.295Z,24.38
2022-12-29T22:24:57.708Z,23.94
2022-12-29T22:27:24.100Z,24.42
2022-12-29T22:29:50.499Z,23.56
2022-12-29T22:32:16.897Z,23.53
2022-12-29T22:34:43.306Z,23.92
2022-12-29T22:37:09.702Z,23.92
2022-12-29T22:39:36.142Z,22.67
2022-12-29T22:42:02.541Z,22.65
2022-12-29T22:44:28.924Z,22.99
2022-12-29T22:46:55.363Z,22.63
2022-12-29T22:49:21.791Z,22.97
2022-12-29T22:51:48.207Z,22.05
2022-12-29T22:54:14.611Z,21.89
2022-12-29T22:56:41.002Z,22.13
2022-12-29T22:59:07.384Z,21.71
2022-12-29T23:01:33.870Z,21.47
2022-12-29T23:04:27.138Z,20.94
2022-12-29T23:06:46.669Z,20.08
2022-12-29T23:09:13.051Z,20.29
2022-12-29T23:11:39.456Z,20.42
2022-12-29T23:14:05.858Z,19.74
2022-12-29T23:16:32.368Z,19.10
2022-12-29T23:18:58.870Z,18.84
2022-12-29T23:21:25.340Z,18.42
2022-12-29T23:23:51.766Z,18.29
2022-12-29T23:26:18.193Z,18.55
2022-12-29T23:28:44.647Z,17.95
2022-12-29T23:31:11.113Z,17.85
2022-12-29T23:33:37.572Z,18.23
2022-12-29T23:36:03.995Z,17.21
2022-12-29T23:38:30.404Z,17.30
2022-12-29T23:40:56.807Z,17.54
2022-12-29T23:43:23.197Z,17.26
2022-12-29T23:45:51.252Z,17.52
2022-12-29T23:48:17.845Z,16.64
2022-12-29T23:50:44.289Z,17.15
2022-12-29T23:53:10.711Z,15.97
2022-12-29T23:55:37.105Z,16.11
2022-12-29T23:58:03.499Z,16.55
